sensor_id;sensor_type;location;lat;lon;timestamp;P1;durP1;ratioP1;P2;durP2;ratioP2
16391;SDS011;8305;-33.882;151.134;2023-05-07T00:01:22;1.88;;;0.70;;
16391;SDS011;8305;-33.882;151.134;2023-05-07T00:03:53;0.75;;;0.60;;
16391;SDS011;8305;-33.882;151.134;2023-05-07T00:06:24;1.33;;;0.70;;
16391;SDS011;8305;-33.882;151.134;2023-05-07T00:08:56;1.35;;;0.70;;
16391;SDS011;8305;-33.882;151.134;2023-05-07T00:11:28;1.95;;;0.80;;
16391;SDS011;8305;-33.882;151.134;2023-05-07T00:13:59;1.58;;;0.70;;
16391;SDS011;8305;-33.882;151.134;2023-05-07T00:16:32;1.00;;;0.80;;
16391;SDS011;8305;-33.882;151.134;2023-05-07T00:19:04;1.13;;;0.90;;
16391;SDS011;8305;-33.882;151.134;2023-05-07T00:21:35;1.35;;;0.85;;
16391;SDS011;8305;-33.882;151.134;2023-05-07T00:24:07;1.77;;;0.73;;
16391;SDS011;8305;-33.882;151.134;2023-05-07T00:26:38;3.63;;;0.95;;
16391;SDS011;8305;-33.882;151.134;2023-05-07T00:29:09;0.80;;;0.80;;
16391;SDS011;8305;-33.882;151.134;2023-05-07T00:31:42;1.95;;;0.77;;
16391;SDS011;8305;-33.882;151.134;2023-05-07T00:34:13;1.23;;;0.70;;
16391;SDS011;8305;-33.882;151.134;2023-05-07T00:36:44;1.17;;;0.80;;
16391;SDS011;8305;-33.882;151.134;2023-05-07T00:39:15;4.57;;;0.80;;
16391;SDS011;8305;-33.882;151.134;2023-05-07T00:41:46;1.00;;;0.70;;
16391;SDS011;8305;-33.882;151.134;2023-05-07T00:44:17;1.52;;;1.00;;
16391;SDS011;8305;-33.882;151.134;2023-05-07T00:46:51;1.00;;;0.90;;
16391;SDS011;8305;-33.882;151.134;2023-05-07T00:49:22;2.55;;;0.90;;
16391;SDS011;8305;-33.882;151.134;2023-05-07T00:51:59;2.45;;;1.00;;
16391;SDS011;8305;-33.882;151.134;2023-05-07T00:54:31;1.08;;;0.82;;
16391;SDS011;8305;-33.882;151.134;2023-05-07T00:57:03;2.50;;;0.90;;
16391;SDS011;8305;-33.882;151.134;2023-05-07T00:59:35;0.80;;;0.80;;
16391;SDS011;8305;-33.882;151.134;2023-05-07T01:02:08;1.30;;;0.80;;
16391;SDS011;8305;-33.882;151.134;2023-05-07T01:04:40;3.22;;;0.80;;
16391;SDS011;8305;-33.882;151.134;2023-05-07T01:07:11;2.38;;;1.00;;
16391;SDS011;8305;-33.882;151.134;2023-05-07T01:09:43;4.57;;;1.08;;
16391;SDS011;8305;-33.882;151.134;2023-05-07T01:12:15;1.60;;;0.90;;
16391;SDS011;8305;-33.882;151.134;2023-05-07T01:14:46;1.20;;;0.82;;
16391;SDS011;8305;-33.882;151.134;2023-05-07T01:17:19;2.03;;;1.00;;
16391;SDS011;8305;-33.882;151.134;2023-05-07T01:19:50;3.75;;;1.40;;
16391;SDS011;8305;-33.882;151.134;2023-05-07T01:22:31;1.55;;;0.90;;
16391;SDS011;8305;-33.882;151.134;2023-05-07T01:25:04;1.77;;;0.95;;
16391;SDS011;8305;-33.882;151.134;2023-05-07T01:27:36;1.70;;;0.90;;
16391;SDS011;8305;-33.882;151.134;2023-05-07T01:30:08;1.35;;;1.10;;
16391;SDS011;8305;-33.882;151.134;2023-05-07T01:32:40;0.80;;;0.77;;
16391;SDS011;8305;-33.882;151.134;2023-05-07T01:35:14;0.90;;;0.75;;
16391;SDS011;8305;-33.882;151.134;2023-05-07T01:37:50;1.50;;;0.90;;
16391;SDS011;8305;-33.882;151.134;2023-05-07T01:40:22;1.50;;;0.93;;
16391;SDS011;8305;-33.882;151.134;2023-05-07T01:42:55;1.17;;;0.80;;
16391;SDS011;8305;-33.882;151.134;2023-05-07T01:45:26;3.60;;;1.05;;
16391;SDS011;8305;-33.882;151.134;2023-05-07T01:47:58;1.20;;;0.90;;
16391;SDS011;8305;-33.882;151.134;2023-05-07T01:50:31;2.05;;;1.20;;
16391;SDS011;8305;-33.882;151.134;2023-05-07T01:53:06;1.58;;;0.90;;
16391;SDS011;8305;-33.882;151.134;2023-05-07T01:55:38;1.00;;;0.90;;
16391;SDS011;8305;-33.882;151.134;2023-05-07T01:58:09;1.48;;;0.80;;
16391;SDS011;8305;-33.882;151.134;2023-05-07T02:00:40;1.05;;;0.70;;
16391;SDS011;8305;-33.882;151.134;2023-05-07T02:03:11;0.82;;;0.65;;
16391;SDS011;8305;-33.882;151.134;2023-05-07T02:05:42;0.77;;;0.60;;
16391;SDS011;8305;-33.882;151.134;2023-05-07T02:08:15;1.02;;;0.70;;
16391;SDS011;8305;-33.882;151.134;2023-05-07T02:10:46;1.20;;;0.60;;
16391;SDS011;8305;-33.882;151.134;2023-05-07T02:13:18;0.70;;;0.70;;
16391;SDS011;8305;-33.882;151.134;2023-05-07T02:15:50;1.38;;;0.60;;
16391;SDS011;8305;-33.882;151.134;2023-05-07T02:18:21;1.23;;;0.60;;
16391;SDS011;8305;-33.882;151.134;2023-05-07T02:20:53;1.05;;;0.60;;
16391;SDS011;8305;-33.882;151.134;2023-05-07T02:23:26;1.90;;;0.52;;
16391;SDS011;8305;-33.882;151.134;2023-05-07T02:25:58;1.60;;;0.70;;
16391;SDS011;8305;-33.882;151.134;2023-05-07T02:28:29;1.33;;;0.52;;
16391;SDS011;8305;-33.882;151.134;2023-05-07T02:31:02;0.82;;;0.50;;
16391;SDS011;8305;-33.882;151.134;2023-05-07T02:33:33;1.08;;;0.47;;
16391;SDS011;8305;-33.882;151.134;2023-05-07T02:36:08;0.50;;;0.50;;
16391;SDS011;8305;-33.882;151.134;2023-05-07T02:38:41;0.50;;;0.50;;
16391;SDS011;8305;-33.882;151.134;2023-05-07T02:41:12;0.57;;;0.30;;
16391;SDS011;8305;-33.882;151.134;2023-05-07T02:43:43;0.28;;;0.20;;
16391;SDS011;8305;-33.882;151.134;2023-05-07T02:46:14;0.70;;;0.30;;
16391;SDS011;8305;-33.882;151.134;2023-05-07T02:48:46;0.40;;;0.40;;
16391;SDS011;8305;-33.882;151.134;2023-05-07T02:51:17;0.77;;;0.40;;
16391;SDS011;8305;-33.882;151.134;2023-05-07T02:53:50;0.52;;;0.40;;
16391;SDS011;8305;-33.882;151.134;2023-05-07T02:56:21;0.95;;;0.50;;
16391;SDS011;8305;-33.882;151.134;2023-05-07T02:58:54;1.58;;;0.60;;
16391;SDS011;8305;-33.882;151.134;2023-05-07T03:01:26;0.63;;;0.47;;
16391;SDS011;8305;-33.882;151.134;2023-05-07T03:03:57;0.70;;;0.60;;
16391;SDS011;8305;-33.882;151.134;2023-05-07T03:06:28;2.25;;;0.60;;
16391;SDS011;8305;-33.882;151.134;2023-05-07T03:09:02;1.20;;;0.50;;
16391;SDS011;8305;-33.882;151.134;2023-05-07T03:11:33;1.42;;;0.60;;
16391;SDS011;8305;-33.882;151.134;2023-05-07T03:14:04;0.63;;;0.60;;
16391;SDS011;8305;-33.882;151.134;2023-05-07T03:16:35;3.35;;;0.70;;
16391;SDS011;8305;-33.882;151.134;2023-05-07T03:19:08;0.77;;;0.55;;
16391;SDS011;8305;-33.882;151.134;2023-05-07T03:21:39;1.95;;;0.80;;
16391;SDS011;8305;-33.882;151.134;2023-05-07T03:24:12;0.77;;;0.65;;
16391;SDS011;8305;-33.882;151.134;2023-05-07T03:26:43;2.47;;;0.70;;
16391;SDS011;8305;-33.882;151.134;2023-05-07T03:29:14;1.45;;;0.50;;
16391;SDS011;8305;-33.882;151.134;2023-05-07T03:31:45;1.58;;;0.75;;
16391;SDS011;8305;-33.882;151.134;2023-05-07T03:34:17;1.27;;;0.80;;
16391;SDS011;8305;-33.882;151.134;2023-05-07T03:36:48;1.95;;;0.70;;
16391;SDS011;8305;-33.882;151.134;2023-05-07T03:39:21;0.98;;;0.50;;
16391;SDS011;8305;-33.882;151.134;2023-05-07T03:41:54;2.47;;;0.50;;
16391;SDS011;8305;-33.882;151.134;2023-05-07T03:44:25;3.28;;;0.50;;
16391;SDS011;8305;-33.882;151.134;2023-05-07T03:46:56;0.90;;;0.57;;
16391;SDS011;8305;-33.882;151.134;2023-05-07T03:49:27;1.48;;;0.50;;
16391;SDS011;8305;-33.882;151.134;2023-05-07T03:51:58;0.95;;;0.45;;
16391;SDS011;8305;-33.882;151.134;2023-05-07T03:54:31;1.45;;;0.60;;
16391;SDS011;8305;-33.882;151.134;2023-05-07T03:57:02;0.50;;;0.50;;
16391;SDS011;8305;-33.882;151.134;2023-05-07T03:59:34;1.80;;;0.50;;
16391;SDS011;8305;-33.882;151.134;2023-05-07T04:02:05;0.88;;;0.60;;
16391;SDS011;8305;-33.882;151.134;2023-05-07T04:04:36;1.75;;;0.50;;
16391;SDS011;8305;-33.882;151.134;2023-05-07T04:07:07;1.20;;;0.60;;
16391;SDS011;8305;-33.882;151.134;2023-05-07T04:09:40;2.38;;;0.70;;
16391;SDS011;8305;-33.882;151.134;2023-05-07T04:12:11;1.70;;;0.63;;
16391;SDS011;8305;-33.882;151.134;2023-05-07T04:14:42;1.60;;;0.68;;
16391;SDS011;8305;-33.882;151.134;2023-05-07T04:17:13;0.95;;;0.55;;
16391;SDS011;8305;-33.882;151.134;2023-05-07T04:19:45;2.47;;;0.50;;
16391;SDS011;8305;-33.882;151.134;2023-05-07T04:22:16;1.15;;;0.40;;
16391;SDS011;8305;-33.882;151.134;2023-05-07T04:24:49;0.65;;;0.38;;
16391;SDS011;8305;-33.882;151.134;2023-05-07T04:27:20;0.60;;;0.40;;
16391;SDS011;8305;-33.882;151.134;2023-05-07T04:29:51;0.80;;;0.30;;
16391;SDS011;8305;-33.882;151.134;2023-05-07T04:32:23;0.60;;;0.40;;
16391;SDS011;8305;-33.882;151.134;2023-05-07T04:34:55;2.08;;;0.30;;
16391;SDS011;8305;-33.882;151.134;2023-05-07T04:37:26;0.45;;;0.30;;
16391;SDS011;8305;-33.882;151.134;2023-05-07T04:39:59;1.55;;;0.63;;
16391;SDS011;8305;-33.882;151.134;2023-05-07T04:42:31;0.60;;;0.40;;
16391;SDS011;8305;-33.882;151.134;2023-05-07T04:45:02;0.52;;;0.30;;
16391;SDS011;8305;-33.882;151.134;2023-05-07T04:47:34;0.52;;;0.40;;
16391;SDS011;8305;-33.882;151.134;2023-05-07T04:50:06;0.65;;;0.40;;
16391;SDS011;8305;-33.882;151.134;2023-05-07T04:52:38;0.20;;;0.20;;
16391;SDS011;8305;-33.882;151.134;2023-05-07T04:55:11;1.20;;;0.40;;
16391;SDS011;8305;-33.882;151.134;2023-05-07T04:57:42;0.70;;;0.25;;
16391;SDS011;8305;-33.882;151.134;2023-05-07T05:00:13;0.35;;;0.30;;
16391;SDS011;8305;-33.882;151.134;2023-05-07T05:02:45;0.55;;;0.38;;
16391;SDS011;8305;-33.882;151.134;2023-05-07T05:05:17;0.30;;;0.30;;
16391;SDS011;8305;-33.882;151.134;2023-05-07T05:07:48;0.20;;;0.20;;
16391;SDS011;8305;-33.882;151.134;2023-05-07T05:10:22;0.85;;;0.30;;
16391;SDS011;8305;-33.882;151.134;2023-05-07T05:12:53;0.40;;;0.30;;
16391;SDS011;8305;-33.882;151.134;2023-05-07T05:15:24;0.35;;;0.35;;
16391;SDS011;8305;-33.882;151.134;2023-05-07T05:17:55;0.57;;;0.30;;
16391;SDS011;8305;-33.882;151.134;2023-05-07T05:20:26;1.33;;;0.50;;
16391;SDS011;8305;-33.882;151.134;2023-05-07T05:22:57;1.63;;;0.40;;
16391;SDS011;8305;-33.882;151.134;2023-05-07T05:25:30;0.30;;;0.30;;
16391;SDS011;8305;-33.882;151.134;2023-05-07T05:28:02;0.77;;;0.30;;
16391;SDS011;8305;-33.882;151.134;2023-05-07T05:30:33;0.30;;;0.30;;
16391;SDS011;8305;-33.882;151.134;2023-05-07T05:33:04;0.38;;;0.38;;
16391;SDS011;8305;-33.882;151.134;2023-05-07T05:35:35;0.75;;;0.30;;
16391;SDS011;8305;-33.882;151.134;2023-05-07T05:38:06;1.15;;;0.50;;
16391;SDS011;8305;-33.882;151.134;2023-05-07T05:40:40;1.60;;;0.50;;
16391;SDS011;8305;-33.882;151.134;2023-05-07T05:43:11;1.25;;;0.50;;
16391;SDS011;8305;-33.882;151.134;2023-05-07T05:45:44;0.50;;;0.40;;
16391;SDS011;8305;-33.882;151.134;2023-05-07T05:48:15;0.85;;;0.50;;
16391;SDS011;8305;-33.882;151.134;2023-05-07T05:50:46;1.38;;;0.50;;
16391;SDS011;8305;-33.882;151.134;2023-05-07T05:53:17;0.75;;;0.40;;
16391;SDS011;8305;-33.882;151.134;2023-05-07T05:55:51;0.55;;;0.55;;
16391;SDS011;8305;-33.882;151.134;2023-05-07T05:58:24;0.98;;;0.50;;
16391;SDS011;8305;-33.882;151.134;2023-05-07T06:00:56;0.45;;;0.40;;
16391;SDS011;8305;-33.882;151.134;2023-05-07T06:03:28;1.00;;;0.60;;
16391;SDS011;8305;-33.882;151.134;2023-05-07T06:06:02;0.80;;;0.70;;
16391;SDS011;8305;-33.882;151.134;2023-05-07T06:08:33;1.55;;;0.90;;
16391;SDS011;8305;-33.882;151.134;2023-05-07T06:11:06;0.70;;;0.70;;
16391;SDS011;8305;-33.882;151.134;2023-05-07T06:13:37;0.80;;;0.80;;
16391;SDS011;8305;-33.882;151.134;2023-05-07T06:16:09;0.80;;;0.80;;
16391;SDS011;8305;-33.882;151.134;2023-05-07T06:18:40;0.93;;;0.80;;
16391;SDS011;8305;-33.882;151.134;2023-05-07T06:21:13;6.60;;;1.00;;
16391;SDS011;8305;-33.882;151.134;2023-05-07T06:23:44;1.58;;;1.00;;
16391;SDS011;8305;-33.882;151.134;2023-05-07T06:26:17;1.05;;;1.00;;
16391;SDS011;8305;-33.882;151.134;2023-05-07T06:28:50;1.42;;;0.90;;
16391;SDS011;8305;-33.882;151.134;2023-05-07T06:31:21;1.02;;;0.93;;
16391;SDS011;8305;-33.882;151.134;2023-05-07T06:33:52;0.85;;;0.73;;
16391;SDS011;8305;-33.882;151.134;2023-05-07T06:36:29;0.80;;;0.80;;
16391;SDS011;8305;-33.882;151.134;2023-05-07T06:39:05;0.85;;;0.80;;
16391;SDS011;8305;-33.882;151.134;2023-05-07T06:41:38;0.50;;;0.50;;
16391;SDS011;8305;-33.882;151.134;2023-05-07T06:44:12;0.70;;;0.70;;
16391;SDS011;8305;-33.882;151.134;2023-05-07T06:46:46;0.68;;;0.68;;
16391;SDS011;8305;-33.882;151.134;2023-05-07T06:49:31;0.70;;;0.70;;
16391;SDS011;8305;-33.882;151.134;2023-05-07T06:52:02;0.70;;;0.70;;
16391;SDS011;8305;-33.882;151.134;2023-05-07T06:54:40;0.50;;;0.50;;
16391;SDS011;8305;-33.882;151.134;2023-05-07T06:57:30;0.50;;;0.50;;
16391;SDS011;8305;-33.882;151.134;2023-05-07T07:00:01;0.50;;;0.50;;
16391;SDS011;8305;-33.882;151.134;2023-05-07T07:02:33;1.08;;;0.80;;
16391;SDS011;8305;-33.882;151.134;2023-05-07T07:05:05;0.73;;;0.73;;
16391;SDS011;8305;-33.882;151.134;2023-05-07T07:07:37;0.80;;;0.77;;
16391;SDS011;8305;-33.882;151.134;2023-05-07T07:10:08;0.60;;;0.60;;
16391;SDS011;8305;-33.882;151.134;2023-05-07T07:12:41;0.70;;;0.70;;
16391;SDS011;8305;-33.882;151.134;2023-05-07T07:15:13;0.95;;;0.80;;
16391;SDS011;8305;-33.882;151.134;2023-05-07T07:17:44;0.60;;;0.60;;
16391;SDS011;8305;-33.882;151.134;2023-05-07T07:20:15;0.50;;;0.50;;
16391;SDS011;8305;-33.882;151.134;2023-05-07T07:22:46;0.60;;;0.60;;
16391;SDS011;8305;-33.882;151.134;2023-05-07T07:25:18;1.10;;;0.70;;
16391;SDS011;8305;-33.882;151.134;2023-05-07T07:27:51;0.60;;;0.60;;
16391;SDS011;8305;-33.882;151.134;2023-05-07T07:30:23;1.45;;;0.60;;
16391;SDS011;8305;-33.882;151.134;2023-05-07T07:32:54;0.60;;;0.60;;
16391;SDS011;8305;-33.882;151.134;2023-05-07T07:35:28;0.70;;;0.65;;
16391;SDS011;8305;-33.882;151.134;2023-05-07T07:37:59;1.17;;;0.60;;
16391;SDS011;8305;-33.882;151.134;2023-05-07T07:40:30;0.70;;;0.70;;
16391;SDS011;8305;-33.882;151.134;2023-05-07T07:43:05;1.35;;;1.00;;
16391;SDS011;8305;-33.882;151.134;2023-05-07T07:45:36;0.80;;;0.80;;
16391;SDS011;8305;-33.882;151.134;2023-05-07T07:48:07;0.80;;;0.80;;
16391;SDS011;8305;-33.882;151.134;2023-05-07T07:50:38;0.80;;;0.80;;
16391;SDS011;8305;-33.882;151.134;2023-05-07T07:53:09;0.80;;;0.80;;
16391;SDS011;8305;-33.882;151.134;2023-05-07T07:55:40;0.60;;;0.60;;
16391;SDS011;8305;-33.882;151.134;2023-05-07T07:58:13;1.15;;;0.80;;
16391;SDS011;8305;-33.882;151.134;2023-05-07T08:00:44;0.68;;;0.68;;
16391;SDS011;8305;-33.882;151.134;2023-05-07T08:03:16;0.80;;;0.60;;
16391;SDS011;8305;-33.882;151.134;2023-05-07T08:05:47;0.93;;;0.70;;
16391;SDS011;8305;-33.882;151.134;2023-05-07T08:08:18;0.52;;;0.52;;
16391;SDS011;8305;-33.882;151.134;2023-05-07T08:10:49;0.73;;;0.65;;
16391;SDS011;8305;-33.882;151.134;2023-05-07T08:13:22;1.25;;;0.88;;
16391;SDS011;8305;-33.882;151.134;2023-05-07T08:15:53;0.90;;;0.75;;
16391;SDS011;8305;-33.882;151.134;2023-05-07T08:18:25;0.70;;;0.70;;
16391;SDS011;8305;-33.882;151.134;2023-05-07T08:20:56;0.70;;;0.70;;
16391;SDS011;8305;-33.882;151.134;2023-05-07T08:23:27;0.75;;;0.60;;
16391;SDS011;8305;-33.882;151.134;2023-05-07T08:26:00;0.85;;;0.70;;
16391;SDS011;8305;-33.882;151.134;2023-05-07T08:28:33;0.50;;;0.50;;
16391;SDS011;8305;-33.882;151.134;2023-05-07T08:31:04;0.70;;;0.70;;
16391;SDS011;8305;-33.882;151.134;2023-05-07T08:33:35;0.80;;;0.80;;
16391;SDS011;8305;-33.882;151.134;2023-05-07T08:36:06;1.50;;;1.00;;
16391;SDS011;8305;-33.882;151.134;2023-05-07T08:38:38;1.63;;;1.13;;
16391;SDS011;8305;-33.882;151.134;2023-05-07T08:41:11;1.75;;;1.13;;
16391;SDS011;8305;-33.882;151.134;2023-05-07T08:43:45;1.20;;;1.02;;
16391;SDS011;8305;-33.882;151.134;2023-05-07T08:46:18;1.85;;;1.20;;
16391;SDS011;8305;-33.882;151.134;2023-05-07T08:48:50;2.10;;;1.30;;
16391;SDS011;8305;-33.882;151.134;2023-05-07T08:51:21;2.20;;;1.38;;
16391;SDS011;8305;-33.882;151.134;2023-05-07T08:53:53;2.25;;;1.80;;
16391;SDS011;8305;-33.882;151.134;2023-05-07T08:56:24;2.25;;;1.40;;
16391;SDS011;8305;-33.882;151.134;2023-05-07T08:58:57;1.85;;;1.30;;
16391;SDS011;8305;-33.882;151.134;2023-05-07T09:01:28;1.20;;;1.00;;
16391;SDS011;8305;-33.882;151.134;2023-05-07T09:04:01;1.15;;;1.02;;
16391;SDS011;8305;-33.882;151.134;2023-05-07T09:06:33;3.45;;;1.20;;
16391;SDS011;8305;-33.882;151.134;2023-05-07T09:09:04;2.22;;;1.30;;
16391;SDS011;8305;-33.882;151.134;2023-05-07T09:11:35;3.25;;;1.60;;
16391;SDS011;8305;-33.882;151.134;2023-05-07T09:14:08;2.83;;;1.75;;
16391;SDS011;8305;-33.882;151.134;2023-05-07T09:16:39;2.88;;;1.50;;
16391;SDS011;8305;-33.882;151.134;2023-05-07T09:19:10;2.17;;;1.55;;
16391;SDS011;8305;-33.882;151.134;2023-05-07T09:21:41;2.80;;;1.55;;
16391;SDS011;8305;-33.882;151.134;2023-05-07T09:24:14;1.63;;;1.23;;
16391;SDS011;8305;-33.882;151.134;2023-05-07T09:26:46;2.20;;;1.33;;
16391;SDS011;8305;-33.882;151.134;2023-05-07T09:29:19;1.67;;;1.10;;
16391;SDS011;8305;-33.882;151.134;2023-05-07T09:31:50;1.00;;;0.75;;
16391;SDS011;8305;-33.882;151.134;2023-05-07T09:34:21;0.88;;;0.80;;
16391;SDS011;8305;-33.882;151.134;2023-05-07T09:36:52;0.90;;;0.80;;
16391;SDS011;8305;-33.882;151.134;2023-05-07T09:39:24;1.05;;;0.82;;
16391;SDS011;8305;-33.882;151.134;2023-05-07T09:42:07;0.60;;;0.60;;
16391;SDS011;8305;-33.882;151.134;2023-05-07T09:44:41;0.50;;;0.50;;
16391;SDS011;8305;-33.882;151.134;2023-05-07T09:47:12;0.50;;;0.50;;
16391;SDS011;8305;-33.882;151.134;2023-05-07T09:49:48;0.40;;;0.40;;
16391;SDS011;8305;-33.882;151.134;2023-05-07T09:52:23;0.40;;;0.40;;
16391;SDS011;8305;-33.882;151.134;2023-05-07T09:54:59;0.40;;;0.40;;
16391;SDS011;8305;-33.882;151.134;2023-05-07T09:57:32;0.40;;;0.40;;
16391;SDS011;8305;-33.882;151.134;2023-05-07T10:00:07;0.30;;;0.30;;
16391;SDS011;8305;-33.882;151.134;2023-05-07T10:02:40;0.30;;;0.30;;
16391;SDS011;8305;-33.882;151.134;2023-05-07T10:05:14;0.32;;;0.32;;
16391;SDS011;8305;-33.882;151.134;2023-05-07T10:07:46;0.40;;;0.40;;
16391;SDS011;8305;-33.882;151.134;2023-05-07T10:10:17;0.47;;;0.30;;
16391;SDS011;8305;-33.882;151.134;2023-05-07T10:12:49;0.40;;;0.40;;
16391;SDS011;8305;-33.882;151.134;2023-05-07T10:15:23;0.25;;;0.25;;
16391;SDS011;8305;-33.882;151.134;2023-05-07T10:17:55;0.30;;;0.30;;
16391;SDS011;8305;-33.882;151.134;2023-05-07T10:20:26;0.30;;;0.30;;
16391;SDS011;8305;-33.882;151.134;2023-05-07T10:22:58;0.20;;;0.20;;
16391;SDS011;8305;-33.882;151.134;2023-05-07T10:25:33;0.35;;;0.30;;
16391;SDS011;8305;-33.882;151.134;2023-05-07T10:28:04;0.30;;;0.30;;
16391;SDS011;8305;-33.882;151.134;2023-05-07T10:30:45;0.38;;;0.30;;
16391;SDS011;8305;-33.882;151.134;2023-05-07T10:33:23;0.30;;;0.30;;
16391;SDS011;8305;-33.882;151.134;2023-05-07T10:35:58;0.30;;;0.30;;
16391;SDS011;8305;-33.882;151.134;2023-05-07T10:38:30;0.30;;;0.30;;
16391;SDS011;8305;-33.882;151.134;2023-05-07T10:41:02;0.30;;;0.30;;
16391;SDS011;8305;-33.882;151.134;2023-05-07T10:43:39;0.30;;;0.30;;
16391;SDS011;8305;-33.882;151.134;2023-05-07T10:46:14;0.30;;;0.30;;
16391;SDS011;8305;-33.882;151.134;2023-05-07T10:51:42;1.45;;;0.30;;
16391;SDS011;8305;-33.882;151.134;2023-05-07T10:54:23;0.22;;;0.22;;
16391;SDS011;8305;-33.882;151.134;2023-05-07T10:56:54;0.30;;;0.30;;
16391;SDS011;8305;-33.882;151.134;2023-05-07T10:59:32;0.30;;;0.30;;
16391;SDS011;8305;-33.882;151.134;2023-05-07T11:02:11;0.20;;;0.20;;
16391;SDS011;8305;-33.882;151.134;2023-05-07T11:04:42;0.73;;;0.30;;
16391;SDS011;8305;-33.882;151.134;2023-05-07T11:07:21;0.30;;;0.30;;
16391;SDS011;8305;-33.882;151.134;2023-05-07T11:10:01;0.20;;;0.20;;
16391;SDS011;8305;-33.882;151.134;2023-05-07T11:15:35;0.20;;;0.20;;
16391;SDS011;8305;-33.882;151.134;2023-05-07T11:18:13;0.20;;;0.20;;
16391;SDS011;8305;-33.882;151.134;2023-05-07T11:20:48;0.30;;;0.30;;
16391;SDS011;8305;-33.882;151.134;2023-05-07T11:26:27;0.30;;;0.30;;
16391;SDS011;8305;-33.882;151.134;2023-05-07T11:28:59;0.30;;;0.30;;
16391;SDS011;8305;-33.882;151.134;2023-05-07T11:31:31;0.32;;;0.32;;
16391;SDS011;8305;-33.882;151.134;2023-05-07T11:34:04;0.40;;;0.25;;
16391;SDS011;8305;-33.882;151.134;2023-05-07T11:36:40;2.63;;;0.30;;
16391;SDS011;8305;-33.882;151.134;2023-05-07T11:39:24;1.10;;;0.30;;
16391;SDS011;8305;-33.882;151.134;2023-05-07T11:41:56;0.30;;;0.30;;
16391;SDS011;8305;-33.882;151.134;2023-05-07T11:44:40;0.20;;;0.20;;
16391;SDS011;8305;-33.882;151.134;2023-05-07T11:47:17;0.40;;;0.40;;
16391;SDS011;8305;-33.882;151.134;2023-05-07T11:49:51;0.30;;;0.30;;
16391;SDS011;8305;-33.882;151.134;2023-05-07T11:52:23;0.20;;;0.20;;
16391;SDS011;8305;-33.882;151.134;2023-05-07T11:54:54;0.28;;;0.28;;
16391;SDS011;8305;-33.882;151.134;2023-05-07T11:57:26;0.30;;;0.30;;
16391;SDS011;8305;-33.882;151.134;2023-05-07T11:59:58;1.70;;;0.30;;
16391;SDS011;8305;-33.882;151.134;2023-05-07T12:02:30;0.50;;;0.30;;
16391;SDS011;8305;-33.882;151.134;2023-05-07T12:05:03;0.95;;;0.30;;
16391;SDS011;8305;-33.882;151.134;2023-05-07T12:07:35;0.85;;;0.30;;
16391;SDS011;8305;-33.882;151.134;2023-05-07T12:10:06;0.40;;;0.40;;
16391;SDS011;8305;-33.882;151.134;2023-05-07T12:12:41;0.57;;;0.40;;
16391;SDS011;8305;-33.882;151.134;2023-05-07T12:15:16;1.10;;;0.45;;
16391;SDS011;8305;-33.882;151.134;2023-05-07T12:17:51;0.30;;;0.30;;
16391;SDS011;8305;-33.882;151.134;2023-05-07T12:20:24;0.70;;;0.47;;
16391;SDS011;8305;-33.882;151.134;2023-05-07T12:22:55;0.73;;;0.40;;
16391;SDS011;8305;-33.882;151.134;2023-05-07T12:25:27;0.55;;;0.40;;
16391;SDS011;8305;-33.882;151.134;2023-05-07T12:28:00;0.63;;;0.43;;
16391;SDS011;8305;-33.882;151.134;2023-05-07T12:30:32;1.20;;;0.50;;
16391;SDS011;8305;-33.882;151.134;2023-05-07T12:33:06;0.95;;;0.60;;
16391;SDS011;8305;-33.882;151.134;2023-05-07T12:35:40;0.60;;;0.43;;
16391;SDS011;8305;-33.882;151.134;2023-05-07T12:38:12;1.40;;;0.60;;
16391;SDS011;8305;-33.882;151.134;2023-05-07T12:40:44;0.40;;;0.40;;
16391;SDS011;8305;-33.882;151.134;2023-05-07T12:43:17;1.02;;;0.50;;
16391;SDS011;8305;-33.882;151.134;2023-05-07T12:45:49;0.32;;;0.32;;
16391;SDS011;8305;-33.882;151.134;2023-05-07T12:48:22;3.58;;;0.60;;
16391;SDS011;8305;-33.882;151.134;2023-05-07T12:50:57;0.90;;;0.50;;
16391;SDS011;8305;-33.882;151.134;2023-05-07T12:53:30;1.27;;;0.38;;
16391;SDS011;8305;-33.882;151.134;2023-05-07T12:56:06;0.47;;;0.47;;
16391;SDS011;8305;-33.882;151.134;2023-05-07T12:58:37;1.65;;;0.60;;
16391;SDS011;8305;-33.882;151.134;2023-05-07T13:01:08;1.08;;;0.52;;
16391;SDS011;8305;-33.882;151.134;2023-05-07T13:03:41;2.85;;;0.47;;
16391;SDS011;8305;-33.882;151.134;2023-05-07T13:06:20;0.50;;;0.50;;
16391;SDS011;8305;-33.882;151.134;2023-05-07T13:08:52;0.75;;;0.50;;
16391;SDS011;8305;-33.882;151.134;2023-05-07T13:11:23;0.40;;;0.40;;
16391;SDS011;8305;-33.882;151.134;2023-05-07T13:13:54;2.20;;;0.60;;
16391;SDS011;8305;-33.882;151.134;2023-05-07T13:16:25;0.88;;;0.50;;
16391;SDS011;8305;-33.882;151.134;2023-05-07T13:18:57;0.88;;;0.70;;
16391;SDS011;8305;-33.882;151.134;2023-05-07T13:21:30;0.60;;;0.60;;
16391;SDS011;8305;-33.882;151.134;2023-05-07T13:24:01;0.60;;;0.60;;
16391;SDS011;8305;-33.882;151.134;2023-05-07T13:26:32;1.27;;;0.50;;
16391;SDS011;8305;-33.882;151.134;2023-05-07T13:29:03;1.75;;;0.50;;
16391;SDS011;8305;-33.882;151.134;2023-05-07T13:31:34;1.20;;;0.55;;
16391;SDS011;8305;-33.882;151.134;2023-05-07T13:34:08;0.60;;;0.60;;
16391;SDS011;8305;-33.882;151.134;2023-05-07T13:36:42;0.77;;;0.57;;
16391;SDS011;8305;-33.882;151.134;2023-05-07T13:39:13;0.50;;;0.50;;
16391;SDS011;8305;-33.882;151.134;2023-05-07T13:41:44;0.50;;;0.50;;
16391;SDS011;8305;-33.882;151.134;2023-05-07T13:44:15;1.02;;;0.70;;
16391;SDS011;8305;-33.882;151.134;2023-05-07T13:46:47;0.70;;;0.70;;
16391;SDS011;8305;-33.882;151.134;2023-05-07T13:49:18;0.73;;;0.55;;
16391;SDS011;8305;-33.882;151.134;2023-05-07T13:51:51;0.68;;;0.47;;
16391;SDS011;8305;-33.882;151.134;2023-05-07T13:54:23;0.55;;;0.50;;
16391;SDS011;8305;-33.882;151.134;2023-05-07T13:56:54;0.50;;;0.50;;
16391;SDS011;8305;-33.882;151.134;2023-05-07T13:59:25;0.50;;;0.50;;
16391;SDS011;8305;-33.882;151.134;2023-05-07T14:01:56;0.50;;;0.50;;
16391;SDS011;8305;-33.882;151.134;2023-05-07T14:04:27;1.20;;;0.50;;
16391;SDS011;8305;-33.882;151.134;2023-05-07T14:07:01;0.60;;;0.50;;
16391;SDS011;8305;-33.882;151.134;2023-05-07T14:09:32;1.95;;;0.70;;
16391;SDS011;8305;-33.882;151.134;2023-05-07T14:12:04;0.55;;;0.55;;
16391;SDS011;8305;-33.882;151.134;2023-05-07T14:14:35;0.90;;;0.50;;
16391;SDS011;8305;-33.882;151.134;2023-05-07T14:17:06;0.50;;;0.50;;
16391;SDS011;8305;-33.882;151.134;2023-05-07T14:19:37;0.43;;;0.40;;
16391;SDS011;8305;-33.882;151.134;2023-05-07T14:22:10;0.60;;;0.50;;
16391;SDS011;8305;-33.882;151.134;2023-05-07T14:24:43;0.73;;;0.50;;
16391;SDS011;8305;-33.882;151.134;2023-05-07T14:27:14;1.15;;;0.65;;
16391;SDS011;8305;-33.882;151.134;2023-05-07T14:29:45;0.50;;;0.40;;
16391;SDS011;8305;-33.882;151.134;2023-05-07T14:32:17;1.02;;;0.50;;
16391;SDS011;8305;-33.882;151.134;2023-05-07T14:34:48;1.02;;;0.70;;
16391;SDS011;8305;-33.882;151.134;2023-05-07T14:37:21;0.65;;;0.52;;
16391;SDS011;8305;-33.882;151.134;2023-05-07T14:39:53;0.45;;;0.40;;
16391;SDS011;8305;-33.882;151.134;2023-05-07T14:42:24;1.02;;;0.50;;
16391;SDS011;8305;-33.882;151.134;2023-05-07T14:44:55;1.25;;;0.50;;
16391;SDS011;8305;-33.882;151.134;2023-05-07T14:47:26;3.50;;;0.50;;
16391;SDS011;8305;-33.882;151.134;2023-05-07T14:49:57;2.83;;;0.63;;
16391;SDS011;8305;-33.882;151.134;2023-05-07T14:52:30;0.40;;;0.40;;
16391;SDS011;8305;-33.882;151.134;2023-05-07T14:55:01;0.70;;;0.50;;
16391;SDS011;8305;-33.882;151.134;2023-05-07T14:57:32;1.35;;;0.50;;
16391;SDS011;8305;-33.882;151.134;2023-05-07T15:00:04;2.15;;;0.50;;